Latest Observation

114 Stations

10 Minute Data
as of 9/5/26 3:19 PM PDT
Station Date Time Temp (°F) RH (%) Dew Pt (°F) Wind Spd (mph) Wind Dir (°) Wind Gust (mph) Wind Gst Dir (°) Latest Rain (In) Soil Moist (%) Soil Temp (°F) Daily Rain (In) Daily Min Temp (°F) Daily Max Temp (°F) Daily Max Wind (mph)
Hobart Mills 9/5/26 1510 60.8   6.7 49   17 41.6   1.5 4.8   0.6 SW | 223 20.4   8.9 SW | 225 0.00 7.4   0.0 59.5   2.1 0.00 39.0   7.8 62.7   5.3 20.4   3.6
Prosser Dam 9/5/26 1510 61.3   1.8 49   7 41.9   1.6 10.5   4.1 SW | 235 18.1   2.1 SW | 236 0.00 5.2   0.0 58.0   2.1 0.00 35.3   12.8 63.2   3.3 20.6   0.4
West Incline Village 9/5/26 1510 55.6   6.4 54   22 39.1   2.8 6.4   2.2 SW | 215 12.9   3.2 SSW | 195 0.00 11.6   0.1 55.1   1.0 0.00 43.4   0.4 57.6   8.2 17.4   4.2
Incline Village (Fairview Blvd) 9/5/26 1510 59.2   6.0 50   16 40.5   1.5 3.6   1.5 SW | 225 12.3   2.2 WSW | 240 0.00 7.6   0.1 67.1   1.3 0.00 46.3   0.7 59.9   6.1 13.5   5.0
Incline Village (Diamond Peak) 9/5/26 1510 55.5   6.9 55   21 39.7   1.7 5.4   1.8 WNW | 302 12.8   3.6 W | 260 0.00 2.4   0.0 55.3   1.6 0.00 44.2   0.2 58.2   9.1 12.8   0.1
Incline Village (Mill Creek) 9/5/26 1510 60.4   6.9 50   19 41.6   2.0 3.2   0.1 WSW | 245 10.8   1.4 WNW | 301 0.00 2.9   0.1 60.1   1.0 0.00 45.2   3.5 62.1   7.5 12.5   6.3
Incline Village (Lakeshore Blvd) 9/5/26 1510 59.2   3.7 57   14 44.2   2.1 5.8   0.2 SW | 235 8.9   1.6 WSW | 249 0.00 20.2   2.9 62.1   1.8 0.00 44.0   7.0 60.0   4.3 10.4   6.6
Glenbrook 9/5/26 1510 61.4   5.3 48   13 41.6   1.4 10.2   3.7 WSW | 256 16.4   3.0 W | 259 0.00 43.5   0.1 58.1   0.1 0.00 40.1   11.6 62.4   6.1 19.8   6.6
Zephyr Cove 9/5/26 1510 64.8   6.2 35   17 36.4   4.4 2.0   0.4 S | 175 8.2   2.4 SE | 137 0.00 2.9   0.1 63.2   2.0 0.00 44.6   5.3 66.0   6.7 8.4   4.1
Kingsbury Grade 9/5/26 1510 62.8   5.7 38   16 36.6   3.8 3.2   0.0 SW | 232 10.9   0.4 SW | 216 0.00 2.1   0.2 61.7   1.4 0.00 39.2   8.3 64.6   6.5 16.8   1.6
South Daggett Pass (Ridge) 9/5/26 1510 58.2   5.5 43   18 35.6   4.1 3.9   0.5 WNW | 286 12.5   3.2 WNW | 301 0.00 2.1   0.0 60.2   1.1 0.00 41.9   2.1 59.3   6.2 16.5   1.9
Palomino Valley 9/5/26 1510 72.0   3.1 29   5 37.7   1.0 8.6   10.2 NW | 319 17.5   15.0 NNW | 345 0.00 6.5   0.1 71.8   1.6 0.00 38.8   15.4 74.3   4.4 23.6   8.9
East Cold Springs 9/5/26 1510 67.6   4.5 35   7 39.1   0.6 14.2   0.8 WSW | 247 22.2   4.8 WSW | 253 0.00 1.5   0.0 68.0   1.4 0.00 45.4   5.2 68.4   4.4 23.8   3.2
Peavine 9/5/26 1510 64.3   4.9 35   9 35.8   1.6 20.0   0.5 WSW | 257 28.8   0.9 W | 262 0.00 4.2   0.0 65.6   0.8 0.00 44.9   5.2 65.6   5.5 28.9   3.8
West Verdi Peak 9/5/26 1610 61.2   4.4 45   12 39.9   2.1 4.4   0.8 S | 170 13.4   1.2 SE | 144 0.00 6.4   0.1 63.8   1.7 0.00 43.0   3.5 63.3   5.4 18.0   1.9
West Verdi 9/5/26 1510 66.9   4.2 39   9 41.1   1.7 6.5   0.3 SW | 215 16.8   2.0 WSW | 250 0.00 6.0   0.0 73.1   2.6 0.00 44.4   7.8 68.2   4.6 23.4   4.5
South Verdi 9/5/26 1510 65.1   4.4 40   7 40.0   0.1 12.5   12.9 SW | 236 19.5   15.0 SW | 221 0.00 10.0   0.1 67.8   0.2 0.00 46.8   4.7 66.1   4.3 26.0   8.9
Northwest Reno 9/5/26 1510 67.1   5.0 36   9 39.5   1.3 24.1   5.7 W | 262 33.0   5.7 WSW | 248 0.00 24.0   0.4 70.4   2.1 0.00 48.4   5.9 69.3   6.4 42.4   1.0
North Lawton 8/28/26 1620 63.8   17.1 74   52 55.4   16.5 1.5   11.6 ESE | 121 5.1   19.0 SE | 124 0.00 - 78.2   0.0 0.05 59.2   7.5 71.9   13.3 20.4   4.6
West Reno (Mogul) 9/5/26 1510 67.7   4.1 36   7 40.1   1.0 8.2   1.6 WSW | 255 17.5   1.0 WSW | 250 0.00 19.4   0.1 75.8   1.0 0.00 47.3   5.9 69.5   4.6 21.9   8.9
Caughlin (Hunter Lake Trail) 9/5/26 1510 68.4   7.2 26   21 32.2   8.9 7.5   1.3 SSE | 158 17.0   6.3 SSW | 208 0.00 16.0   0.2 69.2   1.5 0.00 46.7   5.9 70.4   8.6 21.6   2.9
ArrowCreek 9/5/26 1510 70.1   6.2 26   16 33.6   7.0 13.6   4.1 SSW | 211 22.5   3.4 SSW | 192 0.00 - 32.0   0.0 0.00 47.4   8.7 70.8   6.2 30.6   0.1
Tracy 9/5/26 1510 73.4   3.1 27   7 37.4   2.9 8.4   12.8 W | 265 16.4   18.0 W | 259 0.00 15.4   0.2 74.1   1.4 0.00 48.7   13.5 74.0   2.8 16.5   19.4
Virginia Highlands 9/5/26 1510 64.7   3.5 37   6 38.2   0.8 10.2   1.3 WSW | 250 19.4   8.9 SW | 230 0.00 7.8   0.1 71.6   0.6 0.00 47.7   5.8 67.4   5.9 21.5   13.4
Virginia City 9/5/26 1510 65.6   5.1 34   7 36.7   0.1 8.9   6.9 WSW | 245 19.2   15.5 W | 280 0.00 4.6   0.0 69.6   0.7 0.00 46.0   6.9 68.0   6.1 26.6   8.2
Six Mile Canyon 9/5/26 1510 74.0   3.1 25   3 36.4   0.4 5.9   12.7 E | 84 14.3   13.9 ESE | 106 0.00 12.0   0.0 73.3   1.1 0.00 49.6   12.2 74.4   2.4 21.6   9.3
Mt Rose Highway 9/5/26 1510 59.6   6.6 39   23 34.8   5.8 8.3   5.6 SSW | 206 19.5   7.7 S | 184 0.00 7.4   0.0 58.7   1.1 0.00 45.1   0.2 62.1   7.2 23.4   8.0
Pleasant Valley 9/5/26 1510 70.6   6.7 30   15 37.6   4.3 16.6   0.8 WSW | 239 27.3   2.2 WSW | 246 0.00 2.3   0.0 71.9   1.9 0.00 41.9   14.7 71.7   5.3 27.3   2.9
New Washoe City 9/5/26 1510 68.4   4.1 36   5 40.2   0.1 16.0   3.7 SW | 235 28.8   0.9 WSW | 241 0.00 3.4   0.0 69.8   1.1 0.00 45.2   12.4 69.9   5.1 28.8   2.0
Franktown Creek 9/5/26 1510 68.3   4.2 38   10 41.8   2.1 4.5   1.7 WSW | 244 14.8   0.6 NNW | 331 0.00 7.0   0.1 68.4   1.7 0.00 45.0   10.1 69.2   4.4 17.5   8.0
Musgrove Creek 9/5/26 1510 65.0   3.6 43   4 42.1   1.1 3.0   0.5 SSE | 168 11.2   3.4 S | 184 0.00 10.2   0.1 59.6   0.2 0.00 49.2   2.7 67.1   4.3 18.9   0.4
East Carson 11/23/24 0110 28.6   28.4 - - 4.7   11.0 SW | 220 14.7   10.1 SW | 219 0.02 - 50.9   0.1 0.02 -25.9   79.1 42.9   14.6 16.0   10.7
Kings Canyon 9/5/26 1510 69.1   6.6 32   11 37.7   2.0 9.8   3.5 SW | 234 17.8   1.4 SW | 234 0.00 4.1   0.0 65.9   1.3 0.00 43.6   13.5 70.0   7.1 26.3   0.4
Carson City (Voltaire Canyon) 9/5/26 1510 71.2   6.2 29   10 37.6   2.2 14.1   6.4 WSW | 249 23.6   10.3 WSW | 254 0.00 2.8   0.0 75.6   1.1 0.00 51.0   7.8 72.6   6.7 28.1   9.1
Jacks Valley 9/5/26 1510 70.5   5.4 30   9 37.6   2.2 15.6   0.3 W | 264 24.5   1.6 W | 263 0.00 4.6   0.0 75.9   2.7 0.00 47.3   10.4 71.4   5.1 26.3   3.5
Genoa 9/5/26 1510 72.6   5.5 29   13 38.9   4.4 3.5   1.9 ENE | 78 12.8   3.4 N | 3 0.00 2.5   0.1 77.6   7.7 0.00 45.5   14.2 74.0   6.0 13.5   0.2
South Genoa (Walleys Hot Springs) 9/5/26 1510 74.1   7.7 23   17 34.5   7.3 7.3   0.6 SSE | 154 16.2   0.6 SSE | 156 0.00 5.7   0.7 72.0   1.5 0.00 42.8   17.8 75.2   8.4 24.7   4.3
SW Gardnerville (HWY 88) 9/5/26 1510 72.4   6.7 28   12 37.8   3.1 17.8   1.9 SSW | 200 30.1   6.5 SSE | 167 0.00 2.7   0.0 65.8   2.0 0.00 44.1   15.5 73.2   6.6 30.9   1.0
Sheridan 9/5/26 1510 72.3   5.4 25   13 34.4   5.8 11.0   8.3 SW | 217 23.0   16.6 WSW | 238 0.00 1.0   0.1 69.2   1.3 0.00 46.7   12.5 73.9   6.1 32.2   9.6
Ruhenstroth 9/5/26 1510 72.2   6.3 26   12 35.4   4.0 15.1   2.0 SW | 226 33.8   10.6 WSW | 240 0.00 6.9   0.1 74.0   0.1 0.00 50.3   8.5 73.5   5.3 33.8   2.1
Double Spring 9/5/26 1510 70.0   5.1 25   13 32.6   6.0 12.6   2.3 SW | 216 20.2   9.8 SSW | 211 0.00 24.9   0.1 73.4   0.8 0.00 37.7   17.0 71.3   5.0 22.6   10.2
North Topaz Lake 9/5/26 1510 73.7   4.6 23   9 33.6   4.1 8.9   2.2 S | 184 19.6   5.7 S | 183 0.00 8.1   0.1 87.8   1.6 0.00 50.2   8.4 75.1   4.2 22.4   8.6
Wild Oat Mountain 9/5/26 1510 70.8   4.1 24   8 32.0   3.8 19.6   4.6 SW | 228 34.6   3.9 WSW | 240 0.00 5.8   0.0 74.1   0.0 0.00 49.2   7.3 73.1   4.8 34.6   3.9
Smith Valley 9/5/26 1510 73.4   1.8 29   3 39.2   0.9 3.7   12.6 NE | 47 7.8   25.0 E | 83 0.00 2.7   0.1 74.0   2.6 0.00 44.9   17.7 74.6   1.8 15.0   17.8
Pine Grove Mountain 9/5/26 1510 59.4   1.6 35   1 32.0   2.1 6.6   4.7 WNW | 284 14.3   6.5 W | 263 0.00 6.4   0.4 64.2   1.1 0.00 40.9   4.7 61.6   0.6 15.4   11.2
Paradise Hill 9/5/26 1510 71.0   7.8 31   20 38.7   6.2 6.8   14.1 NW | 313 14.5   14.8 W | 270 0.00 9.7   0.1 75.0   0.8 0.00 48.0   5.1 72.1   5.5 20.1   9.8
Winnemucca 9/5/26 1510 73.0   7.2 29   19 38.7   6.8 11.1   3.1 WSW | 241 22.6   1.5 WSW | 240 0.00 5.6   0.0 71.7   0.5 0.00 50.3   1.8 74.2   6.1 22.6   1.5
NE Elko 9/5/26 1510 79.4   3.2 19   4 33.3   2.4 7.2   0.4 S | 175 12.2   1.4 SSE | 150 0.00 5.6   0.0 71.6   0.7 0.00 40.4   4.5 80.6   3.2 21.2   7.2
North Elko 9/5/26 1510 76.1   2.3 23   1 35.6   1.0 5.7   2.1 WNW | 284 14.0   2.5 NW | 307 0.00 24.4   0.1 70.9   0.4 0.00 48.9   4.8 77.8   2.0 22.5   0.4
South Elko 9/5/26 1510 76.8   4.1 19   5 31.3   2.1 10.2   4.7 S | 189 19.1   7.1 S | 186 0.00 13.5   0.1 68.9   0.8 0.00 48.0   5.1 92.4   17.6 30.2   11.6
Lamoille 9/5/26 1510 77.0   2.2 22   3 34.9   1.4 6.1   4.7 NNE | 17 19.0   0.2 NE | 54 0.00 6.0   0.1 67.0   0.3 0.00 44.1   2.5 78.3   2.6 19.0   2.1
Reid Gardner Sub 9/5/26 1520 99.1   2.5 13   1 39.6   0.1 12.8   0.9 S | 176 23.2   3.7 SSW | 192 0.00 25.4   1.5 86.9   0.2 0.00 60.7   0.9 99.6   2.3 28.8   6.3
Corn Creek 9/5/26 1510 92.8   2.6 9   6 26.9   9.6 17.0   3.0 ESE | 113 28.3   5.1 E | 101 0.00 3.1   0.0 89.2   0.3 0.00 69.3   1.0 93.6   2.4 33.9   6.1
Lucky Strike 9/5/26 1510 80.7   3.5 9   8 16.2   13.0 17.5   3.5 S | 176 29.6   1.0 S | 178 0.00 3.1   0.1 83.9   0.4 0.00 61.7   1.2 81.7   3.3 35.2   3.7
Lower Angel Peak 9/5/26 1520 76.3   2.6 10   11 15.2   15.7 10.3   3.1 SE | 139 20.1   3.4 SSE | 162 0.00 3.1   0.0 72.1   0.1 0.00 53.9   2.0 77.3   2.2 28.7   1.6
Angel Peak 9/5/26 1510 63.3   3.1 12   18 9.4   19.0 15.0   2.6 S | 173 26.1   4.5 S | 185 0.00 2.6   0.0 69.5   0.3 0.00 52.7   1.8 66.4   1.5 37.1   4.7
Upper Kyle Canyon 9/5/26 1510 66.6   2.2 15   12 16.8   12.4 5.8   2.3 ENE | 75 13.8   13.2 ESE | 103 0.00 7.7   0.0 73.4   0.3 0.00 57.6   1.1 70.1   2.4 34.2   6.5
Mt Charleston 9/5/26 1510 67.2   3.1 15   12 17.8   11.2 5.3   1.8 NNW | 348 16.2   2.9 N | 7 0.00 13.1   0.0 67.2   0.2 0.00 57.4   1.2 69.1   1.6 28.6   0.1
Mid Kyle Canyon 9/5/26 1520 75.6   3.5 12   9 19.2   10.3 5.9   7.7 SW | 216 16.9   6.7 SSW | 204 0.00 5.7   0.1 73.0   0.6 0.00 59.2   4.8 77.4   2.2 28.6   6.5
Blue Diamond 9/5/26 1520 88.5   0.9 15   1 34.7   0.1 16.3   8.1 WNW | 287 28.4   12.0 W | 280 0.00 1.2   0.0 87.6   0.4 0.00 68.2   2.5 89.4   0.9 29.6   1.7
Artesian Sub 9/5/26 1520 99.5   1.1 13   1 40.0   3.8 8.0   1.1 SSW | 202 18.8   1.4 SE | 140 0.00 11.7   0.0 92.1   0.2 0.00 77.5   0.6 100.7   1.4 20.9   1.0
North Henderson 9/5/26 1510 98.6   0.2 13   0 38.3   0.8 9.0   8.5 SW | 232 16.3   10.9 SW | 219 0.00 10.5   0.0 95.0   0.4 0.00 77.6   1.5 100.2   0.8 24.0   9.4
Sandy Valley 9/5/26 1510 90.5   0.7 17   2 40.1   3.3 11.6   3.6 WSW | 238 24.1   2.6 SW | 226 0.00 7.4   0.2 88.7   0.0 0.00 68.2   0.2 91.4   0.7 24.1   0.1
Searchlight 9/5/26 1520 89.4   2.2 23   6 47.2   10.0 16.0   0.8 S | 180 22.7   0.4 SE | 141 0.00 5.6   0.0 85.2   0.0 0.00 65.6   0.8 91.1   3.3 29.9   1.1
Laughlin 9/5/26 1510 104.1   1.7 19   9 53.7   18.2 12.4   3.6 S | 176 20.0   5.1 S | 171 0.00 4.4   0.0 97.0   0.7 0.00 79.4   0.6 104.9   1.5 28.8   4.1
31Mission Hills 9/5/26 1510 95.4   2.5 13   1 35.9   3.3 9.4   5.5 SW | 226 20.5   5.6 WSW | 238 0.00 6.5   0.1 93.2   1.8 0.00 74.1   0.2 96.5   2.7 29.2   2.4
32 Enterprise Sierra Cliffs 9/5/26 1510 91.2   1.3 12   0 31.5   0.8 14.6   5.3 SSW | 211 28.2   8.4 SW | 223 0.00 1.4   0.0 91.5   0.1 0.00 68.2   1.4 92.4   1.3 33.0   9.9
29 Calico Basin 9/5/26 1510 87.3   1.2 8   5 19.3   10.0 19.5   6.9 SSW | 196 33.9   12.8 SSW | 206 0.00 2.4   0.0 83.1   0.6 0.00 68.9   0.6 88.2   0.7 33.9   7.5
28 Indian Springs 9/5/26 1510 91.0   1.0 7   5 19.3   13.7 20.8   6.0 SW | 233 33.4   9.1 SW | 229 0.00 4.4   0.0 83.6   1.2 0.00 63.4   1.5 92.4   0.5 39.1   9.9
30 Jean 9/5/26 1510 91.3   0.4 15   4 36.5   8.3 23.1   9.3 WSW | 253 33.4   9.4 W | 266 0.00 4.9   0.1 89.6   0.1 0.00 65.9   1.4 92.1   0.3 34.0   7.1
VC Highlands NW 9/5/26 1510 65.3   5.7 32   10 34.8   1.9 5.3   2.9 WSW | 242 17.3   9.8 W | 266 0.00 1.6   0.0 65.6   1.3 0.00 44.4   6.8 67.2   7.3 19.2   7.8
Glenbrook-Spooner Summit 9/5/26 0750 45.8   2.2 67   3 35.5   3.1 1.5   0.9 WSW | 248 5.1   3.2 WSW | 247 0.00 7.7   0.0 61.2   2.5 0.00 37.2   9.5 46.5   2.4 10.9   12.9
Hobo Hot Springs 9/5/26 1510 74.0   5.9 24   11 35.0   4.2 8.6   4.4 SW | 232 20.1   5.1 WSW | 238 0.00 1.0   0.0 68.9   0.6 0.00 41.5   18.3 75.2   6.6 21.5   3.7
Jack Valley Ranch 2 9/5/26 1510 70.4   5.9 28   11 35.7   3.4 12.2   5.7 WSW | 258 22.5   8.7 WSW | 247 0.00 2.1   0.0 70.8   1.0 0.00 48.4   8.7 71.6   5.9 24.2   2.1
Genoa North 2 9/5/26 1510 72.0   5.6 26   11 35.4   4.3 7.3   1.8 WSW | 256 20.4   4.0 WSW | 258 0.00 0.8   0.0 71.0   0.3 0.00 44.7   13.6 74.2   7.1 20.5   3.2
Mottsville 2 9/5/26 1510 73.7   7.3 21   14 31.4   6.9 8.4   3.6 S | 178 16.5   3.5 SSW | 205 0.00 1.4   0.1 68.1   1.9 0.00 43.6   15.5 74.5   7.3 23.2   5.2
Kingsbury Village 3 9/5/26 1510 57.5   6.4 40   19 33.2   4.1 3.2   0.2 WNW | 291 12.4   2.9 NW | 313 0.00 3.3   0.1 57.2   1.2 0.00 38.5   4.7 59.7   6.8 17.5   4.1
Kingsbury-Benjamin Dr 2 9/5/26 1510 60.4   5.9 37   17 33.8   4.0 3.2   0.8 W | 262 10.4   1.7 SSW | 197 0.00 2.8   0.0 61.9   1.4 0.00 41.0   3.9 60.9   5.9 15.6   0.1
Smith Valley-Wellington 9/5/26 1510 75.4   2.0 24   1 36.4   0.9 5.3   10.9 ESE | 106 9.4   19.9 ENE | 69 0.00 3.4   0.1 76.6   1.6 0.00 43.6   17.1 76.1   0.8 15.6   14.5
Sheridan South 2 9/5/26 1510 71.8   6.5 25   13 34.1   5.2 11.8   1.2 S | 190 22.1   0.8 SSW | 198 0.00 0.4   0.0 69.2   1.0 0.00 47.3   11.4 72.4   6.6 32.5   4.5
Silver Springs 9/5/26 1510 73.3   0.5 26   0 36.9   0.1 4.6   22.5 E | 98 9.6   28.6 ESE | 116 0.00 4.9   0.0 75.4   0.2 0.00 47.8   15.0 74.6   0.3 16.2   22.6
Fernley 9/5/26 1510 73.2   1.0 26   1 36.3   0.3 5.5   17.2 N | 10 10.7   23.5 NNW | 346 0.00 3.2   0.0 78.4   2.4 0.00 47.8   11.5 75.2   1.4 28.4   5.7
Spanish Springs 9/5/26 1510 73.7   4.9 24   10 34.5   4.4 7.4   2.7 W | 269 15.9   2.6 W | 277 0.00 9.9   0.1 73.6   0.1 0.00 42.3   15.2 74.3   4.6 18.0   7.0
Suttcliffe South 2 9/5/26 1510 68.4   3.6 38   16 41.5   6.0 9.8   2.8 NNE | 32 16.9   3.6 NNE | 27 0.00 4.1   0.0 74.6   3.3 0.00 39.4   14.0 70.3   2.9 16.9   13.4
Lemmon Valley North 9/5/26 1510 68.8   4.3 28   8 34.8   2.2 12.2   3.3 SW | 232 22.4   4.0 WSW | 249 0.00 2.0   0.0 67.9   1.0 0.00 34.8   17.4 69.4   3.9 24.8   4.8
Lemmon Valley NW 3 9/5/26 1510 69.0   4.3 30   6 35.9   1.0 12.8   3.3 WNW | 288 21.6   3.0 NW | 318 0.00 1.2   0.0 75.1   0.2 0.00 39.6   14.1 69.8   3.9 21.6   9.7
VC Highlands North 9/5/26 1510 65.7   3.9 32   7 35.0   1.8 9.9   3.1 SW | 230 17.9   8.3 W | 276 0.00 4.8   0.0 78.1   1.2 0.00 38.0   15.2 68.0   5.9 20.4   6.7
Upper Voltaire Cyn 9/5/26 1510 66.4   6.8 30   13 34.0   3.3 13.5   2.7 WSW | 238 24.3   2.6 WSW | 248 0.00 1.1   0.1 65.7   1.4 0.00 48.9   5.8 67.9   7.6 27.7   8.2
Yerington NW 9/5/26 1510 72.8   1.6 30   1 39.4   0.2 4.9   15.0 N | 351 10.2   18.5 NNW | 332 0.00 7.2   0.0 73.6   0.0 0.00 45.2   14.9 73.4   1.4 14.8   13.9
Spanish Springs SW 9/5/26 1510 72.5   5.5 25   9 34.4   3.2 9.0   5.2 SW | 235 17.1   5.3 SW | 223 0.00 1.4   0.0 74.7   0.4 0.00 44.6   12.7 73.1   4.8 17.6   9.3
Cosgrave 2 8/27/26 0750 62.9   4.1 34   3 33.8   1.4 2.6   0.5 WSW | 246 4.1   1.0 W | 267 0.00 3.8   0.1 77.4   2.9 0.00 62.7   3.3 77.4   3.5 11.2   3.9
Winnemucca-Grass Valley 2 9/5/26 1510 73.7   5.4 26   15 36.9   7.1 8.1   8.0 W | 269 16.8   6.2 WSW | 255 0.00 7.7   0.1 70.6   2.0 0.00 40.3   8.2 73.9   4.6 16.8   6.2
Winnemucca-Dutch Flat Rd 9/5/26 1510 72.4   8.8 27   21 36.6   7.3 4.2   8.4 WSW | 246 10.9   8.3 WSW | 255 0.00 6.2   0.0 72.4   1.0 0.00 49.7   1.1 73.3   5.4 17.9   1.9
Paradise Valley 2 9/5/26 1510 70.2   2.8 28   10 35.2   5.2 3.9   8.8 SW | 232 9.8   12.4 S | 186 0.00 12.3   0.0 71.4   0.3 0.00 42.9   5.5 71.3   0.8 20.9   6.6
Golconda 2 9/5/26 1510 72.7   4.3 29   10 38.6   4.1 6.8   7.8 N | 8 11.0   12.0 N | 6 0.00 1.9   0.1 79.7   3.5 0.00 50.1   0.7 73.3   4.0 19.8   5.0
Battle Mountain - South 9/5/26 1510 75.9   0.5 24   1 36.5   0.6 3.9   5.7 WNW | 290 8.4   10.3 NE | 56 0.00 9.4   0.1 73.2   0.5 0.00 44.6   6.3 77.2   0.0 14.8   9.2
Geiger Summit 9/5/26 1510 62.6   4.2 100   0 62.6   4.2 7.0   2.8 WSW | 252 17.8   3.0 W | 265 0.00 6.0   0.2 63.0   0.1 0.00 42.0   8.2 64.1   5.0 22.4   6.4
Combs Canyon 3 9/5/26 1510 71.7   4.5 26   9 34.6   3.7 14.0   4.3 WSW | 237 24.5   5.8 SW | 236 0.00 1.1   0.0 74.2   0.9 0.00 47.5   11.1 73.1   5.2 28.9   2.0
Clear Creek 9/5/26 1510 66.4   6.2 30   13 34.1   3.4 13.9   7.0 WSW | 245 26.3   7.0 WSW | 251 0.00 3.4   0.1 64.9   2.1 0.00 46.9   8.1 67.2   6.6 30.8   1.1
Eastlake 2 9/5/26 1510 68.2   2.9 36   2 40.3   1.2 15.5   7.3 WSW | 248 24.8   5.8 SW | 233 0.00 3.4   0.0 69.4   0.7 0.00 43.6   14.5 71.7   4.1 30.1   0.9
Lovelock-Colado 2 9/5/26 1510 74.1   1.4 26   3 37.5   1.5 8.4   0.6 W | 260 15.3   1.2 W | 274 0.00 - 73.8   0.1 0.00 45.0   0.6 75.1   0.8 18.9   0.0
Spanish Springs NW 9/5/26 1510 72.0   3.9 28   6 36.7   1.6 10.9   2.3 NW | 308 19.8   0.8 WNW | 300 0.00 12.2   0.0 68.9   1.0 0.00 45.8   12.6 72.6   3.4 19.8   6.0
Battle Mountain NW 9/5/26 1510 76.9   5.0 22   6 35.7   1.7 3.7   0.3 SE | 136 7.8   0.1 S | 175 0.00 8.6   0.1 73.6   1.5 0.00 47.1   7.4 77.3   4.9 19.0   0.8
Austin 2 9/5/26 1410 72.2   1.5 24   1 33.0   2.9 7.5   0.9 S | 182 12.0   12.5 SE | 140 0.00 2.8   0.0 81.1   0.0 0.00 37.5   0.1 73.6   1.8 28.9   4.2
Elko-Osino 9/5/26 1510 79.4   3.0 18   2 32.3   0.1 9.4   3.4 SW | 236 16.3   2.5 WSW | 250 0.00 1.4   0.0 76.4   0.7 0.00 39.2   5.0 80.2   2.5 27.4   8.1
Elko-Bill Fishpond 2 9/5/26 1510 75.7   0.1 23   1 34.8   1.5 4.5   2.8 S | 190 9.6   7.0 W | 265 0.00 3.5   0.0 68.4   0.8 0.00 41.3   7.2 76.1   0.1 14.5   3.4
Spring Creek SE 2 9/5/26 1510 79.1   2.6 17   1 30.8   0.2 12.0   0.5 SW | 220 19.9   0.4 SW | 223 0.00 0.2   0.1 67.3   0.2 0.00 41.8   2.5 79.6   1.8 25.5   3.0
Spring Creek NW 9/5/26 1510 78.1   2.3 18   2 31.1   0.4 8.9   3.5 SSW | 199 14.9   1.0 SSW | 202 0.00 2.1   0.0 69.7   0.4 0.00 47.8   1.4 79.0   1.0 23.1   0.4
Elko-Moleen 9/5/26 1510 79.9   2.5 19   1 33.4   0.3 6.9   0.2 WSW | 237 11.8   1.4 SW | 215 0.00 6.2   0.0 74.9   0.3 0.00 41.2   2.5 80.3   1.2 16.0   4.5
Elko-West 9/5/26 1510 79.7   2.6 19   1 33.7   1.0 3.2   0.9 WNW | 285 7.9   8.0 W | 264 0.00 33.0   0.1 66.2   0.0 0.00 39.0   2.6 80.6   2.3 29.4   10.4
Elko-Adobe Creek 9/5/26 1510 71.4   2.2 24   1 32.4   1.0 5.7   4.8 WSW | 256 13.8   7.8 WSW | 250 0.00 18.3   0.1 67.1   0.1 0.00 43.8   4.8 72.6   2.5 23.1   1.2
Tuscarora SW 9/5/26 1510 72.6   4.5 23   6 32.6   1.8 11.5   10.0 WSW | 254 21.2   15.9 WSW | 240 0.00 6.7   0.1 68.8   1.0 0.00 35.8   6.8 74.3   5.6 32.3   11.0
Elko-Monument Peak 9/5/26 1510 73.0   2.6 22   1 32.3   1.2 6.4   3.6 SSW | 194 15.8   7.9 SSW | 193 0.00 4.2   0.1 68.6   0.8 0.00 31.4   6.6 74.9   2.6 23.0   0.6
Wild Horse 9/5/26 1510 71.4   4.7 20   10 28.4   6.1 15.5   10.2 S | 179 24.3   11.8 S | 177 0.00 4.5   0.1 64.4   0.6 0.00 33.9   15.2 72.9   5.2 28.3   7.8
Max     104.1 100 62.6 24.1 - 34.6 - 0.00 43.5 97.0 0.00 79.4 104.9 42.4
Avg     72.5 28 35.3 9.5 - 18.5 - 0.00 7.0 71.7 - - - -
Min     55.5 7 9.4 2.0 - 7.8 - 0.00 0.2 32.0 0.00 31.4 57.6 8.4